sensor_id;sensor_type;location;lat;lon;timestamp;temperature;humidity
57857;DHT22;43683;48.650;9.290;2022-12-19T00:02:02;-2.40;87.60
57857;DHT22;43683;48.650;9.290;2022-12-19T00:04:27;-2.40;87.60
57857;DHT22;43683;48.650;9.290;2022-12-19T00:06:56;-2.40;87.70
57857;DHT22;43683;48.650;9.290;2022-12-19T00:09:22;-2.30;87.70
57857;DHT22;43683;48.650;9.290;2022-12-19T00:11:47;-2.30;87.60
57857;DHT22;43683;48.650;9.290;2022-12-19T00:14:13;-2.30;88.20
57857;DHT22;43683;48.650;9.290;2022-12-19T00:16:38;-2.20;87.50
57857;DHT22;43683;48.650;9.290;2022-12-19T00:19:04;-2.20;87.50
57857;DHT22;43683;48.650;9.290;2022-12-19T00:21:31;-2.20;87.70
57857;DHT22;43683;48.650;9.290;2022-12-19T00:23:57;-2.20;87.80
57857;DHT22;43683;48.650;9.290;2022-12-19T00:26:25;-2.20;87.70
57857;DHT22;43683;48.650;9.290;2022-12-19T00:28:53;-2.10;87.80
57857;DHT22;43683;48.650;9.290;2022-12-19T00:31:19;-2.10;87.70
57857;DHT22;43683;48.650;9.290;2022-12-19T00:33:46;-2.10;87.60
57857;DHT22;43683;48.650;9.290;2022-12-19T00:36:17;-2.10;87.40
57857;DHT22;43683;48.650;9.290;2022-12-19T00:38:44;-2.10;87.40
57857;DHT22;43683;48.650;9.290;2022-12-19T00:41:20;-2.00;87.40
57857;DHT22;43683;48.650;9.290;2022-12-19T00:43:54;-2.00;87.40
57857;DHT22;43683;48.650;9.290;2022-12-19T00:46:20;-2.00;87.30
57857;DHT22;43683;48.650;9.290;2022-12-19T00:48:46;-1.90;87.30
57857;DHT22;43683;48.650;9.290;2022-12-19T00:51:14;-1.90;87.30
57857;DHT22;43683;48.650;9.290;2022-12-19T00:53:40;-1.80;87.30
57857;DHT22;43683;48.650;9.290;2022-12-19T00:56:09;-1.80;87.30
57857;DHT22;43683;48.650;9.290;2022-12-19T00:58:35;-1.80;87.30
57857;DHT22;43683;48.650;9.290;2022-12-19T01:01:10;-1.80;87.20
57857;DHT22;43683;48.650;9.290;2022-12-19T01:03:36;-1.70;87.30
57857;DHT22;43683;48.650;9.290;2022-12-19T01:06:02;-1.60;87.30
57857;DHT22;43683;48.650;9.290;2022-12-19T01:08:28;-1.60;87.20
57857;DHT22;43683;48.650;9.290;2022-12-19T01:10:53;-1.50;87.10
57857;DHT22;43683;48.650;9.290;2022-12-19T01:13:20;-1.50;87.00
57857;DHT22;43683;48.650;9.290;2022-12-19T01:15:46;-1.40;87.00
57857;DHT22;43683;48.650;9.290;2022-12-19T01:18:12;-1.40;87.10
57857;DHT22;43683;48.650;9.290;2022-12-19T01:20:43;-1.50;87.30
57857;DHT22;43683;48.650;9.290;2022-12-19T01:23:11;-1.50;87.40
57857;DHT22;43683;48.650;9.290;2022-12-19T01:25:37;-1.50;87.40
57857;DHT22;43683;48.650;9.290;2022-12-19T01:28:04;-1.50;87.50
57857;DHT22;43683;48.650;9.290;2022-12-19T01:30:30;-1.60;87.60
57857;DHT22;43683;48.650;9.290;2022-12-19T01:32:57;-1.70;87.90
57857;DHT22;43683;48.650;9.290;2022-12-19T01:35:23;-1.70;88.10
57857;DHT22;43683;48.650;9.290;2022-12-19T01:37:52;-1.80;88.10
57857;DHT22;43683;48.650;9.290;2022-12-19T01:40:19;-1.80;88.30
57857;DHT22;43683;48.650;9.290;2022-12-19T01:42:45;-1.80;88.30
57857;DHT22;43683;48.650;9.290;2022-12-19T01:45:22;-1.80;88.20
57857;DHT22;43683;48.650;9.290;2022-12-19T01:50:28;-1.60;88.00
57857;DHT22;43683;48.650;9.290;2022-12-19T01:52:56;-1.60;87.90
57857;DHT22;43683;48.650;9.290;2022-12-19T01:55:22;-1.50;87.80
57857;DHT22;43683;48.650;9.290;2022-12-19T01:57:48;-1.50;87.70
57857;DHT22;43683;48.650;9.290;2022-12-19T02:00:14;-1.40;87.60
57857;DHT22;43683;48.650;9.290;2022-12-19T02:02:44;-1.40;87.70
57857;DHT22;43683;48.650;9.290;2022-12-19T02:05:10;-1.40;87.60
57857;DHT22;43683;48.650;9.290;2022-12-19T02:07:37;-1.50;87.70
57857;DHT22;43683;48.650;9.290;2022-12-19T02:10:04;-1.50;87.80
57857;DHT22;43683;48.650;9.290;2022-12-19T02:12:33;-1.50;87.80
57857;DHT22;43683;48.650;9.290;2022-12-19T02:15:01;-1.50;87.90
57857;DHT22;43683;48.650;9.290;2022-12-19T02:28:31;-1.40;87.70
57857;DHT22;43683;48.650;9.290;2022-12-19T02:36:52;-1.20;87.20
57857;DHT22;43683;48.650;9.290;2022-12-19T02:41:58;-1.10;87.00
57857;DHT22;43683;48.650;9.290;2022-12-19T02:44:55;-1.10;87.00
57857;DHT22;43683;48.650;9.290;2022-12-19T02:47:20;-0.90;87.10
57857;DHT22;43683;48.650;9.290;2022-12-19T02:49:46;-0.90;86.80
57857;DHT22;43683;48.650;9.290;2022-12-19T02:55:23;-0.70;87.10
57857;DHT22;43683;48.650;9.290;2022-12-19T02:58:18;-0.70;87.10
57857;DHT22;43683;48.650;9.290;2022-12-19T03:01:00;-0.70;87.00
57857;DHT22;43683;48.650;9.290;2022-12-19T03:06:37;-0.60;87.20
57857;DHT22;43683;48.650;9.290;2022-12-19T03:09:33;-0.50;87.20
57857;DHT22;43683;48.650;9.290;2022-12-19T03:12:07;-0.60;88.30
57857;DHT22;43683;48.650;9.290;2022-12-19T03:14:34;-0.60;88.00
57857;DHT22;43683;48.650;9.290;2022-12-19T03:17:03;-0.50;87.70
57857;DHT22;43683;48.650;9.290;2022-12-19T03:19:29;-0.50;87.70
57857;DHT22;43683;48.650;9.290;2022-12-19T03:21:55;-0.40;87.90
57857;DHT22;43683;48.650;9.290;2022-12-19T03:24:21;-0.40;87.60
57857;DHT22;43683;48.650;9.290;2022-12-19T03:26:56;-0.30;87.80
57857;DHT22;43683;48.650;9.290;2022-12-19T03:32:08;-0.40;88.30
57857;DHT22;43683;48.650;9.290;2022-12-19T03:34:48;-0.40;88.30
57857;DHT22;43683;48.650;9.290;2022-12-19T03:37:19;-0.40;88.60
57857;DHT22;43683;48.650;9.290;2022-12-19T03:39:51;-0.40;88.70
57857;DHT22;43683;48.650;9.290;2022-12-19T03:42:20;-0.40;88.70
57857;DHT22;43683;48.650;9.290;2022-12-19T03:45:06;-0.40;88.70
57857;DHT22;43683;48.650;9.290;2022-12-19T03:47:48;-0.40;88.70
57857;DHT22;43683;48.650;9.290;2022-12-19T03:50:15;-0.40;88.70
57857;DHT22;43683;48.650;9.290;2022-12-19T03:52:45;-0.40;88.60
57857;DHT22;43683;48.650;9.290;2022-12-19T03:55:18;-0.30;88.60
57857;DHT22;43683;48.650;9.290;2022-12-19T03:57:53;-0.30;88.90
57857;DHT22;43683;48.650;9.290;2022-12-19T04:00:21;-0.30;88.40
57857;DHT22;43683;48.650;9.290;2022-12-19T04:02:51;-0.30;88.60
57857;DHT22;43683;48.650;9.290;2022-12-19T04:05:21;-0.20;88.70
57857;DHT22;43683;48.650;9.290;2022-12-19T04:07:49;-0.20;88.60
57857;DHT22;43683;48.650;9.290;2022-12-19T04:10:18;-0.20;88.70
57857;DHT22;43683;48.650;9.290;2022-12-19T04:12:49;-0.20;88.70
57857;DHT22;43683;48.650;9.290;2022-12-19T04:15:17;-0.20;88.70
57857;DHT22;43683;48.650;9.290;2022-12-19T04:17:50;-0.20;88.70
57857;DHT22;43683;48.650;9.290;2022-12-19T04:20:18;-0.10;88.90
57857;DHT22;43683;48.650;9.290;2022-12-19T04:23:07;-0.10;88.90
57857;DHT22;43683;48.650;9.290;2022-12-19T04:25:38;-0.10;89.00
57857;DHT22;43683;48.650;9.290;2022-12-19T04:28:38;-0.20;89.00
57857;DHT22;43683;48.650;9.290;2022-12-19T04:31:06;-0.10;89.20
57857;DHT22;43683;48.650;9.290;2022-12-19T04:33:32;-0.20;89.30
57857;DHT22;43683;48.650;9.290;2022-12-19T04:35:58;-0.10;89.30
57857;DHT22;43683;48.650;9.290;2022-12-19T04:38:25;-0.10;89.20
57857;DHT22;43683;48.650;9.290;2022-12-19T04:40:51;0.00;89.30
57857;DHT22;43683;48.650;9.290;2022-12-19T04:43:16;0.00;89.40
57857;DHT22;43683;48.650;9.290;2022-12-19T04:45:42;0.00;89.30
57857;DHT22;43683;48.650;9.290;2022-12-19T04:48:08;0.10;89.20
57857;DHT22;43683;48.650;9.290;2022-12-19T04:50:33;0.20;89.60
57857;DHT22;43683;48.650;9.290;2022-12-19T04:52:59;0.20;88.90
57857;DHT22;43683;48.650;9.290;2022-12-19T04:55:25;0.30;88.90
57857;DHT22;43683;48.650;9.290;2022-12-19T04:57:51;0.40;88.90
57857;DHT22;43683;48.650;9.290;2022-12-19T05:00:17;0.40;88.90
57857;DHT22;43683;48.650;9.290;2022-12-19T05:02:43;0.40;88.90
57857;DHT22;43683;48.650;9.290;2022-12-19T05:05:08;0.40;89.00
57857;DHT22;43683;48.650;9.290;2022-12-19T05:07:34;0.40;89.10
57857;DHT22;43683;48.650;9.290;2022-12-19T05:10:00;0.40;89.20
57857;DHT22;43683;48.650;9.290;2022-12-19T05:12:28;0.40;89.40
57857;DHT22;43683;48.650;9.290;2022-12-19T05:14:53;0.40;89.40
57857;DHT22;43683;48.650;9.290;2022-12-19T05:17:19;0.40;89.20
57857;DHT22;43683;48.650;9.290;2022-12-19T05:19:44;0.50;89.30
57857;DHT22;43683;48.650;9.290;2022-12-19T05:22:10;0.50;89.30
57857;DHT22;43683;48.650;9.290;2022-12-19T05:24:35;0.50;89.40
57857;DHT22;43683;48.650;9.290;2022-12-19T05:27:01;0.50;89.60
57857;DHT22;43683;48.650;9.290;2022-12-19T05:29:26;0.40;89.80
57857;DHT22;43683;48.650;9.290;2022-12-19T05:31:52;0.40;90.00
57857;DHT22;43683;48.650;9.290;2022-12-19T05:34:17;0.40;90.00
57857;DHT22;43683;48.650;9.290;2022-12-19T05:36:43;0.40;90.00
57857;DHT22;43683;48.650;9.290;2022-12-19T05:39:09;0.40;90.10
57857;DHT22;43683;48.650;9.290;2022-12-19T05:41:34;0.40;90.20
57857;DHT22;43683;48.650;9.290;2022-12-19T05:44:00;0.40;90.10
57857;DHT22;43683;48.650;9.290;2022-12-19T05:46:25;0.40;90.10
57857;DHT22;43683;48.650;9.290;2022-12-19T05:48:51;0.40;90.20
57857;DHT22;43683;48.650;9.290;2022-12-19T05:51:17;0.40;90.20
57857;DHT22;43683;48.650;9.290;2022-12-19T05:53:43;0.40;90.30
57857;DHT22;43683;48.650;9.290;2022-12-19T05:56:15;0.40;90.30
57857;DHT22;43683;48.650;9.290;2022-12-19T05:58:41;0.40;90.50
57857;DHT22;43683;48.650;9.290;2022-12-19T06:01:33;0.40;90.20
57857;DHT22;43683;48.650;9.290;2022-12-19T06:03:59;0.50;90.30
57857;DHT22;43683;48.650;9.290;2022-12-19T06:06:25;0.50;90.20
57857;DHT22;43683;48.650;9.290;2022-12-19T06:08:53;0.50;90.20
57857;DHT22;43683;48.650;9.290;2022-12-19T06:11:18;0.50;90.10
57857;DHT22;43683;48.650;9.290;2022-12-19T06:13:44;0.60;90.10
57857;DHT22;43683;48.650;9.290;2022-12-19T06:16:15;0.60;90.10
57857;DHT22;43683;48.650;9.290;2022-12-19T06:18:43;0.60;90.20
57857;DHT22;43683;48.650;9.290;2022-12-19T06:21:20;0.70;90.20
57857;DHT22;43683;48.650;9.290;2022-12-19T06:23:46;0.70;90.20
57857;DHT22;43683;48.650;9.290;2022-12-19T06:26:14;0.70;90.20
57857;DHT22;43683;48.650;9.290;2022-12-19T06:28:40;0.70;90.20
57857;DHT22;43683;48.650;9.290;2022-12-19T06:31:06;0.70;90.20
57857;DHT22;43683;48.650;9.290;2022-12-19T06:33:32;0.70;90.20
57857;DHT22;43683;48.650;9.290;2022-12-19T06:36:04;0.70;90.20
57857;DHT22;43683;48.650;9.290;2022-12-19T06:38:31;0.70;90.30
57857;DHT22;43683;48.650;9.290;2022-12-19T06:40:57;0.70;90.30
57857;DHT22;43683;48.650;9.290;2022-12-19T06:43:41;0.80;90.30
57857;DHT22;43683;48.650;9.290;2022-12-19T06:46:08;0.80;90.30
57857;DHT22;43683;48.650;9.290;2022-12-19T06:48:33;0.80;90.30
57857;DHT22;43683;48.650;9.290;2022-12-19T06:50:59;0.80;90.70
57857;DHT22;43683;48.650;9.290;2022-12-19T06:53:24;0.80;90.40
57857;DHT22;43683;48.650;9.290;2022-12-19T06:55:53;0.80;90.40
57857;DHT22;43683;48.650;9.290;2022-12-19T06:58:19;0.80;90.40
57857;DHT22;43683;48.650;9.290;2022-12-19T07:00:45;0.90;90.40
57857;DHT22;43683;48.650;9.290;2022-12-19T07:03:12;0.90;90.70
57857;DHT22;43683;48.650;9.290;2022-12-19T07:05:40;0.90;90.40
57857;DHT22;43683;48.650;9.290;2022-12-19T07:08:07;0.90;90.40
57857;DHT22;43683;48.650;9.290;2022-12-19T07:10:33;1.00;90.40
57857;DHT22;43683;48.650;9.290;2022-12-19T07:12:58;1.00;90.40
57857;DHT22;43683;48.650;9.290;2022-12-19T07:15:24;1.00;90.40
57857;DHT22;43683;48.650;9.290;2022-12-19T07:17:51;1.00;90.40
57857;DHT22;43683;48.650;9.290;2022-12-19T07:20:17;1.10;90.40
57857;DHT22;43683;48.650;9.290;2022-12-19T07:22:43;1.10;90.40
57857;DHT22;43683;48.650;9.290;2022-12-19T07:25:09;1.10;90.40
57857;DHT22;43683;48.650;9.290;2022-12-19T07:27:35;1.10;90.30
57857;DHT22;43683;48.650;9.290;2022-12-19T07:30:02;1.10;90.30
57857;DHT22;43683;48.650;9.290;2022-12-19T07:32:28;1.20;90.40
57857;DHT22;43683;48.650;9.290;2022-12-19T07:34:54;1.20;90.40
57857;DHT22;43683;48.650;9.290;2022-12-19T07:37:19;1.20;90.40
57857;DHT22;43683;48.650;9.290;2022-12-19T07:39:46;1.20;90.40
57857;DHT22;43683;48.650;9.290;2022-12-19T07:42:12;1.10;90.50
57857;DHT22;43683;48.650;9.290;2022-12-19T07:44:37;1.20;90.40
57857;DHT22;43683;48.650;9.290;2022-12-19T07:47:03;1.20;90.30
57857;DHT22;43683;48.650;9.290;2022-12-19T07:49:29;1.20;90.30
57857;DHT22;43683;48.650;9.290;2022-12-19T07:51:54;1.20;90.30
57857;DHT22;43683;48.650;9.290;2022-12-19T07:54:20;1.30;90.30
57857;DHT22;43683;48.650;9.290;2022-12-19T07:56:45;1.40;90.20
57857;DHT22;43683;48.650;9.290;2022-12-19T07:59:11;1.50;90.10
57857;DHT22;43683;48.650;9.290;2022-12-19T08:01:37;1.60;90.00
57857;DHT22;43683;48.650;9.290;2022-12-19T08:04:03;1.60;89.80
57857;DHT22;43683;48.650;9.290;2022-12-19T08:06:28;1.70;89.70
57857;DHT22;43683;48.650;9.290;2022-12-19T08:08:54;1.80;89.60
57857;DHT22;43683;48.650;9.290;2022-12-19T08:11:20;1.80;89.50
57857;DHT22;43683;48.650;9.290;2022-12-19T08:13:54;1.90;89.40
57857;DHT22;43683;48.650;9.290;2022-12-19T08:16:20;2.00;89.20
57857;DHT22;43683;48.650;9.290;2022-12-19T08:18:46;2.10;89.20
57857;DHT22;43683;48.650;9.290;2022-12-19T08:21:12;2.10;89.10
57857;DHT22;43683;48.650;9.290;2022-12-19T08:23:38;2.10;89.10
57857;DHT22;43683;48.650;9.290;2022-12-19T08:26:06;2.10;89.10
57857;DHT22;43683;48.650;9.290;2022-12-19T08:28:34;2.20;89.10
57857;DHT22;43683;48.650;9.290;2022-12-19T08:31:07;2.20;89.10
57857;DHT22;43683;48.650;9.290;2022-12-19T08:33:33;2.30;89.10
57857;DHT22;43683;48.650;9.290;2022-12-19T08:36:09;2.30;89.10
57857;DHT22;43683;48.650;9.290;2022-12-19T08:38:35;2.40;88.90
57857;DHT22;43683;48.650;9.290;2022-12-19T08:41:01;2.40;88.70
57857;DHT22;43683;48.650;9.290;2022-12-19T08:43:27;2.40;88.60
57857;DHT22;43683;48.650;9.290;2022-12-19T08:45:53;2.50;88.60
57857;DHT22;43683;48.650;9.290;2022-12-19T08:48:19;2.60;88.50
57857;DHT22;43683;48.650;9.290;2022-12-19T08:50:49;2.70;88.40
57857;DHT22;43683;48.650;9.290;2022-12-19T08:53:15;2.80;88.20
57857;DHT22;43683;48.650;9.290;2022-12-19T08:55:40;2.90;88.00
57857;DHT22;43683;48.650;9.290;2022-12-19T08:58:06;3.00;87.90
57857;DHT22;43683;48.650;9.290;2022-12-19T09:00:31;3.00;88.00
57857;DHT22;43683;48.650;9.290;2022-12-19T09:02:57;3.00;88.00
57857;DHT22;43683;48.650;9.290;2022-12-19T09:05:22;3.00;88.00
57857;DHT22;43683;48.650;9.290;2022-12-19T09:07:48;3.00;88.00
57857;DHT22;43683;48.650;9.290;2022-12-19T09:10:13;3.10;88.00
57857;DHT22;43683;48.650;9.290;2022-12-19T09:12:39;3.10;88.00
57857;DHT22;43683;48.650;9.290;2022-12-19T09:15:05;3.20;88.00
57857;DHT22;43683;48.650;9.290;2022-12-19T09:17:30;3.10;88.10
57857;DHT22;43683;48.650;9.290;2022-12-19T09:19:56;3.10;88.10
57857;DHT22;43683;48.650;9.290;2022-12-19T09:22:21;3.20;88.00
57857;DHT22;43683;48.650;9.290;2022-12-19T09:24:47;3.30;88.50
57857;DHT22;43683;48.650;9.290;2022-12-19T09:27:12;3.40;87.60
57857;DHT22;43683;48.650;9.290;2022-12-19T09:29:38;3.40;87.60
57857;DHT22;43683;48.650;9.290;2022-12-19T09:32:04;3.60;87.40
57857;DHT22;43683;48.650;9.290;2022-12-19T09:34:29;3.70;87.10
57857;DHT22;43683;48.650;9.290;2022-12-19T09:36:55;3.80;86.80
57857;DHT22;43683;48.650;9.290;2022-12-19T09:39:20;4.00;86.90
57857;DHT22;43683;48.650;9.290;2022-12-19T09:47:16;4.60;87.10
57857;DHT22;43683;48.650;9.290;2022-12-19T09:49:44;4.50;87.20
57857;DHT22;43683;48.650;9.290;2022-12-19T09:52:32;4.60;87.40
57857;DHT22;43683;48.650;9.290;2022-12-19T10:00:18;4.70;86.00
57857;DHT22;43683;48.650;9.290;2022-12-19T10:02:48;4.80;86.00
57857;DHT22;43683;48.650;9.290;2022-12-19T10:07:56;4.90;85.60
57857;DHT22;43683;48.650;9.290;2022-12-19T10:18:55;5.40;83.60
57857;DHT22;43683;48.650;9.290;2022-12-19T10:32:22;5.30;83.10
57857;DHT22;43683;48.650;9.290;2022-12-19T10:34:50;5.30;83.20
57857;DHT22;43683;48.650;9.290;2022-12-19T10:42:52;5.20;83.50
57857;DHT22;43683;48.650;9.290;2022-12-19T10:45:21;5.20;83.60
57857;DHT22;43683;48.650;9.290;2022-12-19T10:47:49;5.20;83.60
57857;DHT22;43683;48.650;9.290;2022-12-19T10:50:22;5.30;83.60
57857;DHT22;43683;48.650;9.290;2022-12-19T10:52:52;5.30;83.70
57857;DHT22;43683;48.650;9.290;2022-12-19T10:55:28;5.20;83.90
57857;DHT22;43683;48.650;9.290;2022-12-19T10:57:59;5.30;83.90
57857;DHT22;43683;48.650;9.290;2022-12-19T11:00:35;5.40;83.60
57857;DHT22;43683;48.650;9.290;2022-12-19T11:03:11;5.60;83.10
57857;DHT22;43683;48.650;9.290;2022-12-19T11:05:42;5.80;82.70
57857;DHT22;43683;48.650;9.290;2022-12-19T11:10:42;5.90;82.30
57857;DHT22;43683;48.650;9.290;2022-12-19T11:16:05;5.60;82.80
57857;DHT22;43683;48.650;9.290;2022-12-19T11:18:45;5.40;83.30
57857;DHT22;43683;48.650;9.290;2022-12-19T11:21:15;5.30;84.00
57857;DHT22;43683;48.650;9.290;2022-12-19T11:26:41;5.30;84.90
57857;DHT22;43683;48.650;9.290;2022-12-19T11:29:43;5.50;85.10
57857;DHT22;43683;48.650;9.290;2022-12-19T11:32:32;5.70;85.00
57857;DHT22;43683;48.650;9.290;2022-12-19T11:35:10;5.90;84.80
57857;DHT22;43683;48.650;9.290;2022-12-19T11:37:43;6.10;84.50
57857;DHT22;43683;48.650;9.290;2022-12-19T11:40:22;6.50;84.10
57857;DHT22;43683;48.650;9.290;2022-12-19T11:43:05;6.80;83.40
57857;DHT22;43683;48.650;9.290;2022-12-19T11:46:16;7.10;82.90
57857;DHT22;43683;48.650;9.290;2022-12-19T11:48:52;7.70;81.60
57857;DHT22;43683;48.650;9.290;2022-12-19T11:51:30;8.00;80.70
57857;DHT22;43683;48.650;9.290;2022-12-19T11:54:11;8.10;80.60
57857;DHT22;43683;48.650;9.290;2022-12-19T11:56:37;8.00;80.80
57857;DHT22;43683;48.650;9.290;2022-12-19T11:59:21;8.00;80.80
57857;DHT22;43683;48.650;9.290;2022-12-19T12:07:38;7.70;80.70
57857;DHT22;43683;48.650;9.290;2022-12-19T12:12:54;7.40;80.90
57857;DHT22;43683;48.650;9.290;2022-12-19T12:15:43;7.30;80.90
57857;DHT22;43683;48.650;9.290;2022-12-19T12:18:25;7.20;81.00
57857;DHT22;43683;48.650;9.290;2022-12-19T12:23:53;7.00;81.10
57857;DHT22;43683;48.650;9.290;2022-12-19T12:26:16;7.10;81.20
57857;DHT22;43683;48.650;9.290;2022-12-19T12:29:26;7.30;81.30
57857;DHT22;43683;48.650;9.290;2022-12-19T12:32:25;7.50;80.70
57857;DHT22;43683;48.650;9.290;2022-12-19T12:35:09;7.50;80.50
57857;DHT22;43683;48.650;9.290;2022-12-19T12:38:24;7.40;80.60
57857;DHT22;43683;48.650;9.290;2022-12-19T12:41:31;7.20;80.80
57857;DHT22;43683;48.650;9.290;2022-12-19T12:44:12;7.10;81.10
57857;DHT22;43683;48.650;9.290;2022-12-19T12:46:41;6.90;81.60
57857;DHT22;43683;48.650;9.290;2022-12-19T12:49:32;6.90;81.80
57857;DHT22;43683;48.650;9.290;2022-12-19T12:51:59;6.90;81.80
57857;DHT22;43683;48.650;9.290;2022-12-19T12:54:32;6.80;82.20
57857;DHT22;43683;48.650;9.290;2022-12-19T12:56:58;6.80;82.30
57857;DHT22;43683;48.650;9.290;2022-12-19T12:59:26;6.80;82.30
57857;DHT22;43683;48.650;9.290;2022-12-19T13:01:55;6.90;82.20
57857;DHT22;43683;48.650;9.290;2022-12-19T13:04:31;6.80;82.10
57857;DHT22;43683;48.650;9.290;2022-12-19T13:07:58;6.90;82.00
57857;DHT22;43683;48.650;9.290;2022-12-19T13:10:21;6.90;82.10
57857;DHT22;43683;48.650;9.290;2022-12-19T13:13:06;6.80;82.00
57857;DHT22;43683;48.650;9.290;2022-12-19T13:15:35;6.70;82.20
57857;DHT22;43683;48.650;9.290;2022-12-19T13:18:35;6.60;82.40
57857;DHT22;43683;48.650;9.290;2022-12-19T13:21:04;6.40;82.70
57857;DHT22;43683;48.650;9.290;2022-12-19T13:26:02;6.10;83.30
57857;DHT22;43683;48.650;9.290;2022-12-19T13:39:26;5.90;83.30
57857;DHT22;43683;48.650;9.290;2022-12-19T13:42:02;5.70;83.80
57857;DHT22;43683;48.650;9.290;2022-12-19T13:44:49;5.50;84.50
57857;DHT22;43683;48.650;9.290;2022-12-19T13:47:18;5.40;84.90
57857;DHT22;43683;48.650;9.290;2022-12-19T13:49:44;5.30;85.10
57857;DHT22;43683;48.650;9.290;2022-12-19T13:52:10;5.20;85.40
57857;DHT22;43683;48.650;9.290;2022-12-19T13:54:48;5.20;85.70
57857;DHT22;43683;48.650;9.290;2022-12-19T13:57:29;5.10;86.00
57857;DHT22;43683;48.650;9.290;2022-12-19T14:00:05;5.10;86.20
57857;DHT22;43683;48.650;9.290;2022-12-19T14:02:33;5.00;86.30
57857;DHT22;43683;48.650;9.290;2022-12-19T14:05:02;5.00;86.50
57857;DHT22;43683;48.650;9.290;2022-12-19T14:07:33;5.00;86.60
57857;DHT22;43683;48.650;9.290;2022-12-19T14:10:00;4.90;86.60
57857;DHT22;43683;48.650;9.290;2022-12-19T14:12:36;4.90;86.70
57857;DHT22;43683;48.650;9.290;2022-12-19T14:15:37;4.90;87.00
57857;DHT22;43683;48.650;9.290;2022-12-19T14:18:32;4.80;86.90
57857;DHT22;43683;48.650;9.290;2022-12-19T14:21:18;4.80;87.10
57857;DHT22;43683;48.650;9.290;2022-12-19T14:23:46;4.80;87.20
57857;DHT22;43683;48.650;9.290;2022-12-19T14:26:31;4.80;87.30
57857;DHT22;43683;48.650;9.290;2022-12-19T14:29:06;4.80;88.10
57857;DHT22;43683;48.650;9.290;2022-12-19T14:31:37;4.70;87.30
57857;DHT22;43683;48.650;9.290;2022-12-19T14:34:03;4.70;87.40
57857;DHT22;43683;48.650;9.290;2022-12-19T14:36:30;4.60;87.50
57857;DHT22;43683;48.650;9.290;2022-12-19T14:38:57;4.60;87.80
57857;DHT22;43683;48.650;9.290;2022-12-19T14:44:17;4.40;87.90
57857;DHT22;43683;48.650;9.290;2022-12-19T14:47:03;4.30;88.10
57857;DHT22;43683;48.650;9.290;2022-12-19T14:49:32;4.20;88.60
57857;DHT22;43683;48.650;9.290;2022-12-19T14:52:00;4.10;88.90
57857;DHT22;43683;48.650;9.290;2022-12-19T14:54:27;3.90;89.20
57857;DHT22;43683;48.650;9.290;2022-12-19T14:57:02;3.80;89.60
57857;DHT22;43683;48.650;9.290;2022-12-19T14:59:29;3.80;90.00
57857;DHT22;43683;48.650;9.290;2022-12-19T15:02:17;3.70;90.00
57857;DHT22;43683;48.650;9.290;2022-12-19T15:05:02;3.60;90.10
57857;DHT22;43683;48.650;9.290;2022-12-19T15:07:29;3.60;90.20
57857;DHT22;43683;48.650;9.290;2022-12-19T15:09:57;3.50;90.20
57857;DHT22;43683;48.650;9.290;2022-12-19T15:12:30;3.40;90.20
57857;DHT22;43683;48.650;9.290;2022-12-19T15:17:48;3.20;90.40
57857;DHT22;43683;48.650;9.290;2022-12-19T15:20:15;3.10;90.60
57857;DHT22;43683;48.650;9.290;2022-12-19T15:22:40;2.90;90.70
57857;DHT22;43683;48.650;9.290;2022-12-19T15:25:06;2.80;90.80
57857;DHT22;43683;48.650;9.290;2022-12-19T15:27:33;2.80;91.00
57857;DHT22;43683;48.650;9.290;2022-12-19T15:29:58;2.70;91.00
57857;DHT22;43683;48.650;9.290;2022-12-19T15:32:24;2.60;91.10
57857;DHT22;43683;48.650;9.290;2022-12-19T15:34:49;2.60;91.20
57857;DHT22;43683;48.650;9.290;2022-12-19T15:37:16;2.50;91.30
57857;DHT22;43683;48.650;9.290;2022-12-19T15:39:42;2.40;91.40
57857;DHT22;43683;48.650;9.290;2022-12-19T15:42:22;2.50;91.40
57857;DHT22;43683;48.650;9.290;2022-12-19T15:44:50;2.50;91.40
57857;DHT22;43683;48.650;9.290;2022-12-19T15:47:30;2.50;91.30
57857;DHT22;43683;48.650;9.290;2022-12-19T15:49:57;2.50;91.40
57857;DHT22;43683;48.650;9.290;2022-12-19T15:52:27;2.40;91.40
57857;DHT22;43683;48.650;9.290;2022-12-19T15:54:53;2.30;91.50
57857;DHT22;43683;48.650;9.290;2022-12-19T15:57:28;2.30;91.60
57857;DHT22;43683;48.650;9.290;2022-12-19T15:59:56;2.30;91.60
57857;DHT22;43683;48.650;9.290;2022-12-19T16:02:25;2.20;91.70
57857;DHT22;43683;48.650;9.290;2022-12-19T16:04:51;2.20;91.70
57857;DHT22;43683;48.650;9.290;2022-12-19T16:07:19;2.20;91.70
57857;DHT22;43683;48.650;9.290;2022-12-19T16:09:46;2.20;91.80
57857;DHT22;43683;48.650;9.290;2022-12-19T16:12:14;2.10;91.80
57857;DHT22;43683;48.650;9.290;2022-12-19T16:14:41;2.10;91.90
57857;DHT22;43683;48.650;9.290;2022-12-19T16:17:12;2.20;91.90
57857;DHT22;43683;48.650;9.290;2022-12-19T16:19:39;2.30;91.90
57857;DHT22;43683;48.650;9.290;2022-12-19T16:22:18;2.20;91.80
57857;DHT22;43683;48.650;9.290;2022-12-19T16:24:44;2.20;92.00
57857;DHT22;43683;48.650;9.290;2022-12-19T16:27:22;2.10;92.00
57857;DHT22;43683;48.650;9.290;2022-12-19T16:29:49;2.00;92.10
57857;DHT22;43683;48.650;9.290;2022-12-19T16:32:15;2.00;92.10
57857;DHT22;43683;48.650;9.290;2022-12-19T16:34:41;1.90;92.10
57857;DHT22;43683;48.650;9.290;2022-12-19T16:37:07;1.90;92.10
57857;DHT22;43683;48.650;9.290;2022-12-19T16:39:32;1.90;92.20
57857;DHT22;43683;48.650;9.290;2022-12-19T16:41:58;1.80;92.20
57857;DHT22;43683;48.650;9.290;2022-12-19T16:44:23;1.80;92.20
57857;DHT22;43683;48.650;9.290;2022-12-19T16:46:50;1.70;92.20
57857;DHT22;43683;48.650;9.290;2022-12-19T16:49:18;1.70;92.30
57857;DHT22;43683;48.650;9.290;2022-12-19T16:51:45;1.60;92.30
57857;DHT22;43683;48.650;9.290;2022-12-19T16:54:12;1.50;92.30
57857;DHT22;43683;48.650;9.290;2022-12-19T16:56:41;1.50;92.40
57857;DHT22;43683;48.650;9.290;2022-12-19T16:59:32;1.50;92.50
57857;DHT22;43683;48.650;9.290;2022-12-19T17:01:59;1.50;92.60
57857;DHT22;43683;48.650;9.290;2022-12-19T17:04:25;1.50;92.50
57857;DHT22;43683;48.650;9.290;2022-12-19T17:06:52;1.50;92.50
57857;DHT22;43683;48.650;9.290;2022-12-19T17:09:21;1.50;92.50
57857;DHT22;43683;48.650;9.290;2022-12-19T17:11:50;1.60;92.60
57857;DHT22;43683;48.650;9.290;2022-12-19T17:14:24;1.70;92.50
57857;DHT22;43683;48.650;9.290;2022-12-19T17:16:51;1.80;92.50
57857;DHT22;43683;48.650;9.290;2022-12-19T17:19:26;1.80;92.40
57857;DHT22;43683;48.650;9.290;2022-12-19T17:21:53;1.90;92.40
57857;DHT22;43683;48.650;9.290;2022-12-19T17:24:19;2.00;92.40
57857;DHT22;43683;48.650;9.290;2022-12-19T17:26:45;2.00;92.40
57857;DHT22;43683;48.650;9.290;2022-12-19T17:29:12;2.00;92.50
57857;DHT22;43683;48.650;9.290;2022-12-19T17:31:38;2.00;92.50
57857;DHT22;43683;48.650;9.290;2022-12-19T17:34:16;2.00;92.50
57857;DHT22;43683;48.650;9.290;2022-12-19T17:36:42;2.00;92.60
57857;DHT22;43683;48.650;9.290;2022-12-19T17:39:18;2.10;92.70
57857;DHT22;43683;48.650;9.290;2022-12-19T17:41:44;2.10;92.70
57857;DHT22;43683;48.650;9.290;2022-12-19T17:44:10;2.20;92.60
57857;DHT22;43683;48.650;9.290;2022-12-19T17:46:36;2.30;92.60
57857;DHT22;43683;48.650;9.290;2022-12-19T17:49:02;2.30;92.60
57857;DHT22;43683;48.650;9.290;2022-12-19T17:51:28;2.30;92.50